sensor_id;sensor_type;location;lat;lon;timestamp;P1;durP1;ratioP1;P2;durP2;ratioP2
22034;SDS011;11181;51.002;4.356;2023-04-03T00:01:43;6.87;;;4.50;;
22034;SDS011;11181;51.002;4.356;2023-04-03T00:04:10;6.37;;;4.73;;
22034;SDS011;11181;51.002;4.356;2023-04-03T00:06:37;6.70;;;4.40;;
22034;SDS011;11181;51.002;4.356;2023-04-03T00:09:06;6.30;;;4.63;;
22034;SDS011;11181;51.002;4.356;2023-04-03T00:11:33;5.40;;;4.63;;
22034;SDS011;11181;51.002;4.356;2023-04-03T00:13:59;8.37;;;4.77;;
22034;SDS011;11181;51.002;4.356;2023-04-03T00:16:26;7.60;;;4.93;;
22034;SDS011;11181;51.002;4.356;2023-04-03T00:18:53;5.70;;;4.23;;
22034;SDS011;11181;51.002;4.356;2023-04-03T00:21:20;11.20;;;5.60;;
22034;SDS011;11181;51.002;4.356;2023-04-03T00:23:47;7.07;;;5.53;;
22034;SDS011;11181;51.002;4.356;2023-04-03T00:26:15;7.77;;;5.07;;
22034;SDS011;11181;51.002;4.356;2023-04-03T00:28:42;12.13;;;5.73;;
22034;SDS011;11181;51.002;4.356;2023-04-03T00:31:09;6.87;;;4.63;;
22034;SDS011;11181;51.002;4.356;2023-04-03T00:33:36;10.10;;;5.23;;
22034;SDS011;11181;51.002;4.356;2023-04-03T00:36:07;8.43;;;4.70;;
22034;SDS011;11181;51.002;4.356;2023-04-03T00:38:34;7.97;;;4.87;;
22034;SDS011;11181;51.002;4.356;2023-04-03T00:41:01;6.53;;;4.73;;
22034;SDS011;11181;51.002;4.356;2023-04-03T00:43:30;9.30;;;4.97;;
22034;SDS011;11181;51.002;4.356;2023-04-03T00:45:57;7.90;;;4.40;;
22034;SDS011;11181;51.002;4.356;2023-04-03T00:48:26;7.03;;;4.20;;
22034;SDS011;11181;51.002;4.356;2023-04-03T00:50:55;7.97;;;4.40;;
22034;SDS011;11181;51.002;4.356;2023-04-03T00:53:25;8.37;;;4.57;;
22034;SDS011;11181;51.002;4.356;2023-04-03T00:55:55;7.33;;;4.57;;
22034;SDS011;11181;51.002;4.356;2023-04-03T00:58:24;6.80;;;4.73;;
22034;SDS011;11181;51.002;4.356;2023-04-03T01:00:56;6.30;;;4.40;;
22034;SDS011;11181;51.002;4.356;2023-04-03T01:03:24;8.40;;;5.27;;
22034;SDS011;11181;51.002;4.356;2023-04-03T01:05:51;5.73;;;3.83;;
22034;SDS011;11181;51.002;4.356;2023-04-03T01:08:18;7.50;;;4.30;;
22034;SDS011;11181;51.002;4.356;2023-04-03T01:10:45;5.67;;;4.20;;
22034;SDS011;11181;51.002;4.356;2023-04-03T01:13:20;5.43;;;4.37;;
22034;SDS011;11181;51.002;4.356;2023-04-03T01:15:49;8.93;;;4.30;;
22034;SDS011;11181;51.002;4.356;2023-04-03T01:18:17;6.00;;;3.83;;
22034;SDS011;11181;51.002;4.356;2023-04-03T01:21:05;4.83;;;3.67;;
22034;SDS011;11181;51.002;4.356;2023-04-03T01:23:56;5.13;;;4.07;;
22034;SDS011;11181;51.002;4.356;2023-04-03T01:26:39;4.60;;;3.63;;
22034;SDS011;11181;51.002;4.356;2023-04-03T01:29:06;5.50;;;4.10;;
22034;SDS011;11181;51.002;4.356;2023-04-03T01:31:44;6.10;;;4.37;;
22034;SDS011;11181;51.002;4.356;2023-04-03T01:34:15;5.70;;;4.57;;
22034;SDS011;11181;51.002;4.356;2023-04-03T01:36:42;7.10;;;4.40;;
22034;SDS011;11181;51.002;4.356;2023-04-03T01:39:10;7.83;;;4.07;;
22034;SDS011;11181;51.002;4.356;2023-04-03T01:41:37;4.57;;;3.80;;
22034;SDS011;11181;51.002;4.356;2023-04-03T01:44:04;5.37;;;3.80;;
22034;SDS011;11181;51.002;4.356;2023-04-03T01:46:31;5.27;;;3.53;;
22034;SDS011;11181;51.002;4.356;2023-04-03T01:49:00;8.50;;;4.47;;
22034;SDS011;11181;51.002;4.356;2023-04-03T01:51:27;11.40;;;4.87;;
22034;SDS011;11181;51.002;4.356;2023-04-03T01:53:54;10.47;;;4.53;;
22034;SDS011;11181;51.002;4.356;2023-04-03T01:56:21;8.47;;;4.10;;
22034;SDS011;11181;51.002;4.356;2023-04-03T01:58:48;5.17;;;4.03;;
22034;SDS011;11181;51.002;4.356;2023-04-03T02:01:15;7.60;;;3.90;;
22034;SDS011;11181;51.002;4.356;2023-04-03T02:03:42;5.60;;;4.03;;
22034;SDS011;11181;51.002;4.356;2023-04-03T02:06:11;6.37;;;3.70;;
22034;SDS011;11181;51.002;4.356;2023-04-03T02:08:38;5.00;;;3.40;;
22034;SDS011;11181;51.002;4.356;2023-04-03T02:11:05;7.10;;;3.87;;
22034;SDS011;11181;51.002;4.356;2023-04-03T02:13:32;5.50;;;3.70;;
22034;SDS011;11181;51.002;4.356;2023-04-03T02:15:59;7.83;;;4.13;;
22034;SDS011;11181;51.002;4.356;2023-04-03T02:18:33;6.80;;;4.37;;
22034;SDS011;11181;51.002;4.356;2023-04-03T02:20:59;7.67;;;3.70;;
22034;SDS011;11181;51.002;4.356;2023-04-03T02:23:28;8.17;;;3.80;;
22034;SDS011;11181;51.002;4.356;2023-04-03T02:26:02;9.63;;;4.40;;
22034;SDS011;11181;51.002;4.356;2023-04-03T02:28:30;7.67;;;3.80;;
22034;SDS011;11181;51.002;4.356;2023-04-03T02:30:58;5.33;;;4.27;;
22034;SDS011;11181;51.002;4.356;2023-04-03T02:33:24;16.93;;;5.63;;
22034;SDS011;11181;51.002;4.356;2023-04-03T02:35:52;5.33;;;4.10;;
22034;SDS011;11181;51.002;4.356;2023-04-03T02:38:19;7.37;;;4.33;;
22034;SDS011;11181;51.002;4.356;2023-04-03T02:40:48;6.53;;;4.00;;
22034;SDS011;11181;51.002;4.356;2023-04-03T02:43:16;6.43;;;4.37;;
22034;SDS011;11181;51.002;4.356;2023-04-03T02:45:43;6.10;;;4.33;;
22034;SDS011;11181;51.002;4.356;2023-04-03T02:48:10;7.03;;;4.20;;
22034;SDS011;11181;51.002;4.356;2023-04-03T02:50:37;7.10;;;4.40;;
22034;SDS011;11181;51.002;4.356;2023-04-03T02:53:04;7.03;;;4.33;;
22034;SDS011;11181;51.002;4.356;2023-04-03T02:55:31;7.23;;;4.73;;
22034;SDS011;11181;51.002;4.356;2023-04-03T02:57:59;6.67;;;4.50;;
22034;SDS011;11181;51.002;4.356;2023-04-03T03:00:26;5.93;;;4.47;;
22034;SDS011;11181;51.002;4.356;2023-04-03T03:02:53;6.67;;;4.70;;
22034;SDS011;11181;51.002;4.356;2023-04-03T03:05:20;7.07;;;4.70;;
22034;SDS011;11181;51.002;4.356;2023-04-03T03:07:47;7.30;;;4.47;;
22034;SDS011;11181;51.002;4.356;2023-04-03T03:10:14;7.43;;;4.17;;
22034;SDS011;11181;51.002;4.356;2023-04-03T03:12:41;6.73;;;4.83;;
22034;SDS011;11181;51.002;4.356;2023-04-03T03:15:10;11.43;;;4.57;;
22034;SDS011;11181;51.002;4.356;2023-04-03T03:17:37;11.50;;;5.87;;
22034;SDS011;11181;51.002;4.356;2023-04-03T03:20:05;5.57;;;4.63;;
22034;SDS011;11181;51.002;4.356;2023-04-03T03:22:33;6.20;;;4.47;;
22034;SDS011;11181;51.002;4.356;2023-04-03T03:25:00;7.33;;;4.33;;
22034;SDS011;11181;51.002;4.356;2023-04-03T03:27:28;7.77;;;4.60;;
22034;SDS011;11181;51.002;4.356;2023-04-03T03:29:55;6.93;;;4.60;;
22034;SDS011;11181;51.002;4.356;2023-04-03T03:32:23;8.97;;;5.10;;
22034;SDS011;11181;51.002;4.356;2023-04-03T03:34:50;12.30;;;5.50;;
22034;SDS011;11181;51.002;4.356;2023-04-03T03:37:17;8.33;;;5.03;;
22034;SDS011;11181;51.002;4.356;2023-04-03T03:39:44;7.20;;;5.20;;
22034;SDS011;11181;51.002;4.356;2023-04-03T03:42:11;6.80;;;4.90;;
22034;SDS011;11181;51.002;4.356;2023-04-03T03:44:38;6.23;;;4.50;;
22034;SDS011;11181;51.002;4.356;2023-04-03T03:47:05;7.60;;;5.10;;
22034;SDS011;11181;51.002;4.356;2023-04-03T03:49:36;8.10;;;5.07;;
22034;SDS011;11181;51.002;4.356;2023-04-03T03:52:03;7.37;;;5.13;;
22034;SDS011;11181;51.002;4.356;2023-04-03T03:54:30;6.10;;;5.07;;
22034;SDS011;11181;51.002;4.356;2023-04-03T03:56:57;8.43;;;5.20;;
22034;SDS011;11181;51.002;4.356;2023-04-03T03:59:24;7.27;;;5.00;;
22034;SDS011;11181;51.002;4.356;2023-04-03T04:01:51;6.97;;;5.00;;
22034;SDS011;11181;51.002;4.356;2023-04-03T04:04:18;9.97;;;5.43;;
22034;SDS011;11181;51.002;4.356;2023-04-03T04:06:46;8.10;;;5.43;;
22034;SDS011;11181;51.002;4.356;2023-04-03T04:09:13;5.70;;;5.07;;
22034;SDS011;11181;51.002;4.356;2023-04-03T04:11:40;7.10;;;5.00;;
22034;SDS011;11181;51.002;4.356;2023-04-03T04:14:07;6.97;;;5.43;;
22034;SDS011;11181;51.002;4.356;2023-04-03T04:16:35;7.97;;;5.33;;
22034;SDS011;11181;51.002;4.356;2023-04-03T04:19:02;7.90;;;4.93;;
22034;SDS011;11181;51.002;4.356;2023-04-03T04:21:29;6.37;;;5.37;;
22034;SDS011;11181;51.002;4.356;2023-04-03T04:23:57;9.20;;;5.27;;
22034;SDS011;11181;51.002;4.356;2023-04-03T04:26:24;8.13;;;5.40;;
22034;SDS011;11181;51.002;4.356;2023-04-03T04:28:51;7.40;;;5.67;;
22034;SDS011;11181;51.002;4.356;2023-04-03T04:31:18;9.40;;;5.00;;
22034;SDS011;11181;51.002;4.356;2023-04-03T04:33:45;10.13;;;5.60;;
22034;SDS011;11181;51.002;4.356;2023-04-03T04:36:12;11.27;;;5.73;;
22034;SDS011;11181;51.002;4.356;2023-04-03T04:38:39;7.40;;;5.07;;
22034;SDS011;11181;51.002;4.356;2023-04-03T04:41:08;5.93;;;5.10;;
22034;SDS011;11181;51.002;4.356;2023-04-03T04:43:35;7.33;;;5.70;;
22034;SDS011;11181;51.002;4.356;2023-04-03T04:46:03;7.43;;;5.27;;
22034;SDS011;11181;51.002;4.356;2023-04-03T04:48:31;10.03;;;5.80;;
22034;SDS011;11181;51.002;4.356;2023-04-03T04:50:58;8.43;;;5.40;;
22034;SDS011;11181;51.002;4.356;2023-04-03T04:53:25;10.20;;;6.20;;
22034;SDS011;11181;51.002;4.356;2023-04-03T04:55:52;8.67;;;5.90;;
22034;SDS011;11181;51.002;4.356;2023-04-03T04:58:20;7.87;;;5.43;;
22034;SDS011;11181;51.002;4.356;2023-04-03T05:00:47;9.87;;;5.63;;
22034;SDS011;11181;51.002;4.356;2023-04-03T05:03:14;10.00;;;5.63;;
22034;SDS011;11181;51.002;4.356;2023-04-03T05:05:41;7.03;;;5.33;;
22034;SDS011;11181;51.002;4.356;2023-04-03T05:08:08;8.50;;;5.63;;
22034;SDS011;11181;51.002;4.356;2023-04-03T05:10:35;6.87;;;5.20;;
22034;SDS011;11181;51.002;4.356;2023-04-03T05:13:02;7.30;;;5.67;;
22034;SDS011;11181;51.002;4.356;2023-04-03T05:15:30;7.23;;;5.73;;
22034;SDS011;11181;51.002;4.356;2023-04-03T05:17:57;11.87;;;6.43;;
22034;SDS011;11181;51.002;4.356;2023-04-03T05:20:24;5.93;;;4.90;;
22034;SDS011;11181;51.002;4.356;2023-04-03T05:22:51;10.43;;;5.63;;
22034;SDS011;11181;51.002;4.356;2023-04-03T05:25:18;9.40;;;5.27;;
22034;SDS011;11181;51.002;4.356;2023-04-03T05:27:45;8.13;;;5.27;;
22034;SDS011;11181;51.002;4.356;2023-04-03T05:30:12;6.93;;;5.33;;
22034;SDS011;11181;51.002;4.356;2023-04-03T05:32:41;6.50;;;5.20;;
22034;SDS011;11181;51.002;4.356;2023-04-03T05:35:08;8.17;;;5.20;;
22034;SDS011;11181;51.002;4.356;2023-04-03T05:37:36;10.73;;;5.87;;
22034;SDS011;11181;51.002;4.356;2023-04-03T05:40:03;8.60;;;5.83;;
22034;SDS011;11181;51.002;4.356;2023-04-03T05:42:31;11.97;;;5.43;;
22034;SDS011;11181;51.002;4.356;2023-04-03T05:44:58;8.30;;;5.33;;
22034;SDS011;11181;51.002;4.356;2023-04-03T05:47:25;8.37;;;5.63;;
22034;SDS011;11181;51.002;4.356;2023-04-03T05:49:54;5.87;;;5.10;;
22034;SDS011;11181;51.002;4.356;2023-04-03T05:52:22;7.93;;;5.80;;
22034;SDS011;11181;51.002;4.356;2023-04-03T05:54:52;12.23;;;6.10;;
22034;SDS011;11181;51.002;4.356;2023-04-03T05:57:21;10.07;;;6.53;;
22034;SDS011;11181;51.002;4.356;2023-04-03T05:59:48;10.00;;;6.63;;
22034;SDS011;11181;51.002;4.356;2023-04-03T06:02:17;8.83;;;6.77;;
22034;SDS011;11181;51.002;4.356;2023-04-03T06:04:46;10.87;;;7.10;;
22034;SDS011;11181;51.002;4.356;2023-04-03T06:07:15;12.37;;;6.17;;
22034;SDS011;11181;51.002;4.356;2023-04-03T06:09:46;9.47;;;6.67;;
22034;SDS011;11181;51.002;4.356;2023-04-03T06:12:14;10.90;;;6.83;;
22034;SDS011;11181;51.002;4.356;2023-04-03T06:14:42;13.40;;;6.87;;
22034;SDS011;11181;51.002;4.356;2023-04-03T06:17:09;11.03;;;7.07;;
22034;SDS011;11181;51.002;4.356;2023-04-03T06:19:38;7.57;;;5.90;;
22034;SDS011;11181;51.002;4.356;2023-04-03T06:22:07;9.23;;;6.53;;
22034;SDS011;11181;51.002;4.356;2023-04-03T06:24:51;10.43;;;6.70;;
22034;SDS011;11181;51.002;4.356;2023-04-03T06:27:23;8.87;;;6.17;;
22034;SDS011;11181;51.002;4.356;2023-04-03T06:29:50;11.40;;;6.70;;
22034;SDS011;11181;51.002;4.356;2023-04-03T06:32:17;9.43;;;6.77;;
22034;SDS011;11181;51.002;4.356;2023-04-03T06:34:44;11.73;;;8.07;;
22034;SDS011;11181;51.002;4.356;2023-04-03T06:37:12;7.50;;;6.33;;
22034;SDS011;11181;51.002;4.356;2023-04-03T06:39:41;13.40;;;6.57;;
22034;SDS011;11181;51.002;4.356;2023-04-03T06:42:10;9.37;;;6.63;;
22034;SDS011;11181;51.002;4.356;2023-04-03T06:44:37;10.47;;;6.70;;
22034;SDS011;11181;51.002;4.356;2023-04-03T06:47:04;7.87;;;5.83;;
22034;SDS011;11181;51.002;4.356;2023-04-03T06:49:31;9.37;;;6.30;;
22034;SDS011;11181;51.002;4.356;2023-04-03T06:51:58;11.17;;;7.03;;
22034;SDS011;11181;51.002;4.356;2023-04-03T06:54:25;9.03;;;5.73;;
22034;SDS011;11181;51.002;4.356;2023-04-03T06:56:51;9.10;;;5.83;;
22034;SDS011;11181;51.002;4.356;2023-04-03T06:59:20;7.50;;;6.20;;
22034;SDS011;11181;51.002;4.356;2023-04-03T07:01:47;7.40;;;4.83;;
22034;SDS011;11181;51.002;4.356;2023-04-03T07:04:14;5.93;;;5.10;;
22034;SDS011;11181;51.002;4.356;2023-04-03T07:06:41;6.57;;;5.17;;
22034;SDS011;11181;51.002;4.356;2023-04-03T07:09:08;8.43;;;6.10;;
22034;SDS011;11181;51.002;4.356;2023-04-03T07:11:36;10.37;;;5.20;;
22034;SDS011;11181;51.002;4.356;2023-04-03T07:14:03;9.07;;;5.23;;
22034;SDS011;11181;51.002;4.356;2023-04-03T07:16:32;6.07;;;4.50;;
22034;SDS011;11181;51.002;4.356;2023-04-03T07:18:59;6.33;;;4.90;;
22034;SDS011;11181;51.002;4.356;2023-04-03T07:21:26;5.93;;;4.07;;
22034;SDS011;11181;51.002;4.356;2023-04-03T07:23:53;8.90;;;5.40;;
22034;SDS011;11181;51.002;4.356;2023-04-03T07:26:21;8.80;;;4.87;;
22034;SDS011;11181;51.002;4.356;2023-04-03T07:28:48;9.70;;;4.80;;
22034;SDS011;11181;51.002;4.356;2023-04-03T07:31:16;7.63;;;4.50;;
22034;SDS011;11181;51.002;4.356;2023-04-03T07:33:45;7.17;;;4.87;;
22034;SDS011;11181;51.002;4.356;2023-04-03T07:36:14;9.40;;;5.23;;
22034;SDS011;11181;51.002;4.356;2023-04-03T07:38:42;5.90;;;4.43;;
22034;SDS011;11181;51.002;4.356;2023-04-03T07:41:10;6.23;;;4.20;;
22034;SDS011;11181;51.002;4.356;2023-04-03T07:43:40;9.73;;;4.73;;
22034;SDS011;11181;51.002;4.356;2023-04-03T07:46:07;7.00;;;4.30;;
22034;SDS011;11181;51.002;4.356;2023-04-03T07:48:36;6.47;;;4.50;;
22034;SDS011;11181;51.002;4.356;2023-04-03T07:51:05;4.87;;;4.27;;
22034;SDS011;11181;51.002;4.356;2023-04-03T07:53:32;5.00;;;4.20;;
22034;SDS011;11181;51.002;4.356;2023-04-03T07:55:59;4.77;;;4.20;;
22034;SDS011;11181;51.002;4.356;2023-04-03T07:58:28;4.90;;;3.80;;
22034;SDS011;11181;51.002;4.356;2023-04-03T08:00:55;7.00;;;4.43;;
22034;SDS011;11181;51.002;4.356;2023-04-03T08:03:23;4.43;;;3.63;;
22034;SDS011;11181;51.002;4.356;2023-04-03T08:05:50;6.93;;;4.03;;
22034;SDS011;11181;51.002;4.356;2023-04-03T08:08:20;7.07;;;4.00;;
22034;SDS011;11181;51.002;4.356;2023-04-03T08:10:49;5.93;;;3.50;;
22034;SDS011;11181;51.002;4.356;2023-04-03T08:13:17;6.57;;;4.33;;
22034;SDS011;11181;51.002;4.356;2023-04-03T08:15:44;4.77;;;3.70;;
22034;SDS011;11181;51.002;4.356;2023-04-03T08:18:12;6.20;;;3.60;;
22034;SDS011;11181;51.002;4.356;2023-04-03T08:20:39;6.47;;;3.47;;
22034;SDS011;11181;51.002;4.356;2023-04-03T08:23:06;8.70;;;3.67;;
22034;SDS011;11181;51.002;4.356;2023-04-03T08:25:37;6.37;;;3.57;;
22034;SDS011;11181;51.002;4.356;2023-04-03T08:28:04;4.63;;;3.33;;
22034;SDS011;11181;51.002;4.356;2023-04-03T08:30:31;4.87;;;3.13;;
22034;SDS011;11181;51.002;4.356;2023-04-03T08:32:59;5.60;;;3.33;;
22034;SDS011;11181;51.002;4.356;2023-04-03T08:35:27;5.93;;;3.30;;
22034;SDS011;11181;51.002;4.356;2023-04-03T08:37:54;8.27;;;3.60;;
22034;SDS011;11181;51.002;4.356;2023-04-03T08:40:21;8.10;;;3.53;;
22034;SDS011;11181;51.002;4.356;2023-04-03T08:42:53;9.50;;;3.60;;
22034;SDS011;11181;51.002;4.356;2023-04-03T08:45:27;12.77;;;3.83;;
22034;SDS011;11181;51.002;4.356;2023-04-03T08:48:05;4.90;;;3.23;;
22034;SDS011;11181;51.002;4.356;2023-04-03T08:50:36;8.60;;;2.97;;
22034;SDS011;11181;51.002;4.356;2023-04-03T08:53:06;5.97;;;2.87;;
22034;SDS011;11181;51.002;4.356;2023-04-03T08:55:40;4.63;;;2.60;;
22034;SDS011;11181;51.002;4.356;2023-04-03T08:58:12;5.43;;;2.50;;
22034;SDS011;11181;51.002;4.356;2023-04-03T09:00:44;6.93;;;2.73;;
22034;SDS011;11181;51.002;4.356;2023-04-03T09:03:12;7.07;;;2.87;;
22034;SDS011;11181;51.002;4.356;2023-04-03T09:05:41;4.73;;;2.50;;
22034;SDS011;11181;51.002;4.356;2023-04-03T09:08:14;3.93;;;2.07;;
22034;SDS011;11181;51.002;4.356;2023-04-03T09:10:48;3.80;;;2.10;;
22034;SDS011;11181;51.002;4.356;2023-04-03T09:13:22;8.30;;;3.17;;
22034;SDS011;11181;51.002;4.356;2023-04-03T09:15:56;3.97;;;2.20;;
22034;SDS011;11181;51.002;4.356;2023-04-03T09:18:26;5.47;;;2.33;;
22034;SDS011;11181;51.002;4.356;2023-04-03T09:21:00;3.33;;;1.80;;
22034;SDS011;11181;51.002;4.356;2023-04-03T09:23:36;1.83;;;1.57;;
22034;SDS011;11181;51.002;4.356;2023-04-03T09:26:10;2.73;;;1.63;;
22034;SDS011;11181;51.002;4.356;2023-04-03T09:28:41;4.50;;;2.00;;
22034;SDS011;11181;51.002;4.356;2023-04-03T09:31:13;4.50;;;2.10;;
22034;SDS011;11181;51.002;4.356;2023-04-03T09:33:45;3.07;;;1.77;;
22034;SDS011;11181;51.002;4.356;2023-04-03T09:36:13;7.97;;;1.77;;
22034;SDS011;11181;51.002;4.356;2023-04-03T09:38:40;2.07;;;1.37;;
22034;SDS011;11181;51.002;4.356;2023-04-03T09:41:11;4.13;;;1.80;;
22034;SDS011;11181;51.002;4.356;2023-04-03T09:43:51;3.40;;;1.80;;
22034;SDS011;11181;51.002;4.356;2023-04-03T09:46:25;8.37;;;2.53;;
22034;SDS011;11181;51.002;4.356;2023-04-03T09:48:55;4.03;;;2.10;;
22034;SDS011;11181;51.002;4.356;2023-04-03T09:51:25;4.57;;;1.77;;
22034;SDS011;11181;51.002;4.356;2023-04-03T09:53:53;2.67;;;1.20;;
22034;SDS011;11181;51.002;4.356;2023-04-03T09:56:22;3.13;;;1.50;;
22034;SDS011;11181;51.002;4.356;2023-04-03T09:59:02;1.67;;;1.30;;
22034;SDS011;11181;51.002;4.356;2023-04-03T10:01:35;2.80;;;1.60;;
22034;SDS011;11181;51.002;4.356;2023-04-03T10:04:04;8.47;;;3.00;;
22034;SDS011;11181;51.002;4.356;2023-04-03T10:06:34;7.47;;;2.30;;
22034;SDS011;11181;51.002;4.356;2023-04-03T10:09:03;4.00;;;1.63;;
22034;SDS011;11181;51.002;4.356;2023-04-03T10:11:32;5.53;;;1.80;;
22034;SDS011;11181;51.002;4.356;2023-04-03T10:14:02;3.33;;;2.60;;
22034;SDS011;11181;51.002;4.356;2023-04-03T10:16:32;3.30;;;1.80;;
22034;SDS011;11181;51.002;4.356;2023-04-03T10:19:12;3.23;;;1.40;;
22034;SDS011;11181;51.002;4.356;2023-04-03T10:21:55;5.37;;;2.00;;
22034;SDS011;11181;51.002;4.356;2023-04-03T10:24:27;8.40;;;1.80;;
22034;SDS011;11181;51.002;4.356;2023-04-03T10:27:02;6.40;;;1.63;;
22034;SDS011;11181;51.002;4.356;2023-04-03T10:29:40;5.83;;;1.63;;
22034;SDS011;11181;51.002;4.356;2023-04-03T10:32:22;2.50;;;1.40;;
22034;SDS011;11181;51.002;4.356;2023-04-03T10:35:01;4.47;;;2.00;;
22034;SDS011;11181;51.002;4.356;2023-04-03T10:37:35;2.60;;;1.50;;
22034;SDS011;11181;51.002;4.356;2023-04-03T10:40:19;3.20;;;1.83;;
22034;SDS011;11181;51.002;4.356;2023-04-03T10:42:58;2.90;;;2.13;;
22034;SDS011;11181;51.002;4.356;2023-04-03T10:45:36;2.87;;;1.67;;
22034;SDS011;11181;51.002;4.356;2023-04-03T10:48:23;3.77;;;1.20;;
22034;SDS011;11181;51.002;4.356;2023-04-03T10:51:12;2.17;;;1.10;;
22034;SDS011;11181;51.002;4.356;2023-04-03T10:53:52;2.33;;;1.40;;
22034;SDS011;11181;51.002;4.356;2023-04-03T10:56:26;3.83;;;1.40;;
22034;SDS011;11181;51.002;4.356;2023-04-03T10:58:58;4.20;;;1.53;;
22034;SDS011;11181;51.002;4.356;2023-04-03T11:01:36;1.97;;;1.40;;
22034;SDS011;11181;51.002;4.356;2023-04-03T11:04:07;1.73;;;1.23;;
22034;SDS011;11181;51.002;4.356;2023-04-03T11:06:37;4.03;;;1.30;;
22034;SDS011;11181;51.002;4.356;2023-04-03T11:09:11;3.30;;;1.57;;
22034;SDS011;11181;51.002;4.356;2023-04-03T11:11:45;2.33;;;1.60;;
22034;SDS011;11181;51.002;4.356;2023-04-03T11:14:25;3.20;;;1.73;;
22034;SDS011;11181;51.002;4.356;2023-04-03T11:16:59;4.50;;;1.70;;
22034;SDS011;11181;51.002;4.356;2023-04-03T11:19:34;3.43;;;2.00;;
22034;SDS011;11181;51.002;4.356;2023-04-03T11:22:08;3.87;;;1.77;;
22034;SDS011;11181;51.002;4.356;2023-04-03T11:24:41;2.57;;;1.50;;
22034;SDS011;11181;51.002;4.356;2023-04-03T11:27:11;2.00;;;1.30;;
22034;SDS011;11181;51.002;4.356;2023-04-03T11:29:43;6.10;;;2.33;;
22034;SDS011;11181;51.002;4.356;2023-04-03T11:32:21;8.83;;;1.73;;
22034;SDS011;11181;51.002;4.356;2023-04-03T11:35:04;2.53;;;1.83;;
22034;SDS011;11181;51.002;4.356;2023-04-03T11:37:34;7.57;;;1.97;;
22034;SDS011;11181;51.002;4.356;2023-04-03T11:40:04;4.00;;;1.87;;
22034;SDS011;11181;51.002;4.356;2023-04-03T11:42:37;2.13;;;1.83;;
22034;SDS011;11181;51.002;4.356;2023-04-03T11:45:22;2.03;;;1.33;;
22034;SDS011;11181;51.002;4.356;2023-04-03T11:47:55;3.17;;;1.53;;
22034;SDS011;11181;51.002;4.356;2023-04-03T11:50:31;3.67;;;1.47;;
22034;SDS011;11181;51.002;4.356;2023-04-03T11:56:27;3.37;;;1.30;;
22034;SDS011;11181;51.002;4.356;2023-04-03T12:01:43;3.90;;;1.37;;
22034;SDS011;11181;51.002;4.356;2023-04-03T12:04:13;3.93;;;1.30;;
22034;SDS011;11181;51.002;4.356;2023-04-03T12:06:47;3.37;;;0.87;;
22034;SDS011;11181;51.002;4.356;2023-04-03T12:09:26;1.63;;;1.00;;
22034;SDS011;11181;51.002;4.356;2023-04-03T12:11:55;2.20;;;1.30;;
22034;SDS011;11181;51.002;4.356;2023-04-03T12:14:24;1.63;;;1.10;;
22034;SDS011;11181;51.002;4.356;2023-04-03T12:16:52;3.13;;;1.10;;
22034;SDS011;11181;51.002;4.356;2023-04-03T12:19:34;1.60;;;0.70;;
22034;SDS011;11181;51.002;4.356;2023-04-03T12:22:15;1.77;;;1.00;;
22034;SDS011;11181;51.002;4.356;2023-04-03T12:24:46;1.43;;;0.90;;
22034;SDS011;11181;51.002;4.356;2023-04-03T12:35:49;1.67;;;0.90;;
22034;SDS011;11181;51.002;4.356;2023-04-03T12:38:44;1.43;;;0.93;;
22034;SDS011;11181;51.002;4.356;2023-04-03T12:41:27;4.13;;;1.07;;
22034;SDS011;11181;51.002;4.356;2023-04-03T12:47:02;1.10;;;1.00;;
22034;SDS011;11181;51.002;4.356;2023-04-03T12:49:46;1.63;;;0.87;;
22034;SDS011;11181;51.002;4.356;2023-04-03T12:52:22;1.47;;;1.00;;
22034;SDS011;11181;51.002;4.356;2023-04-03T12:54:58;1.27;;;1.00;;
22034;SDS011;11181;51.002;4.356;2023-04-03T12:57:29;3.23;;;0.83;;
22034;SDS011;11181;51.002;4.356;2023-04-03T12:59:57;3.17;;;0.80;;
22034;SDS011;11181;51.002;4.356;2023-04-03T13:02:25;1.83;;;1.10;;
22034;SDS011;11181;51.002;4.356;2023-04-03T13:04:55;1.37;;;0.83;;
22034;SDS011;11181;51.002;4.356;2023-04-03T13:07:27;1.80;;;1.03;;
22034;SDS011;11181;51.002;4.356;2023-04-03T13:10:09;2.43;;;1.00;;
22034;SDS011;11181;51.002;4.356;2023-04-03T13:12:45;2.63;;;0.93;;
22034;SDS011;11181;51.002;4.356;2023-04-03T13:15:14;2.07;;;0.80;;
22034;SDS011;11181;51.002;4.356;2023-04-03T13:17:43;1.80;;;1.17;;
22034;SDS011;11181;51.002;4.356;2023-04-03T13:20:11;1.27;;;0.97;;
22034;SDS011;11181;51.002;4.356;2023-04-03T13:22:47;2.77;;;1.63;;
22034;SDS011;11181;51.002;4.356;2023-04-03T13:25:17;5.47;;;1.43;;
22034;SDS011;11181;51.002;4.356;2023-04-03T13:27:46;2.80;;;1.60;;
22034;SDS011;11181;51.002;4.356;2023-04-03T13:30:21;5.03;;;1.20;;
22034;SDS011;11181;51.002;4.356;2023-04-03T13:32:54;1.97;;;1.20;;
22034;SDS011;11181;51.002;4.356;2023-04-03T13:35:35;1.67;;;1.20;;
22034;SDS011;11181;51.002;4.356;2023-04-03T13:38:06;2.43;;;1.20;;
22034;SDS011;11181;51.002;4.356;2023-04-03T13:40:48;2.30;;;1.30;;
22034;SDS011;11181;51.002;4.356;2023-04-03T13:43:17;1.90;;;0.90;;
22034;SDS011;11181;51.002;4.356;2023-04-03T13:45:57;2.33;;;1.20;;
22034;SDS011;11181;51.002;4.356;2023-04-03T13:48:34;3.60;;;1.43;;
22034;SDS011;11181;51.002;4.356;2023-04-03T13:51:04;4.10;;;1.30;;
22034;SDS011;11181;51.002;4.356;2023-04-03T13:53:43;2.03;;;1.10;;
22034;SDS011;11181;51.002;4.356;2023-04-03T13:56:16;3.03;;;1.70;;
22034;SDS011;11181;51.002;4.356;2023-04-03T13:58:54;3.20;;;1.37;;
22034;SDS011;11181;51.002;4.356;2023-04-03T14:04:18;4.17;;;1.37;;
22034;SDS011;11181;51.002;4.356;2023-04-03T14:06:47;2.53;;;1.50;;
22034;SDS011;11181;51.002;4.356;2023-04-03T14:09:18;4.80;;;1.77;;
22034;SDS011;11181;51.002;4.356;2023-04-03T14:11:46;2.57;;;1.40;;
22034;SDS011;11181;51.002;4.356;2023-04-03T14:14:16;2.37;;;1.27;;
22034;SDS011;11181;51.002;4.356;2023-04-03T14:16:46;3.53;;;1.33;;
22034;SDS011;11181;51.002;4.356;2023-04-03T14:19:19;3.17;;;1.37;;
22034;SDS011;11181;51.002;4.356;2023-04-03T14:21:48;4.80;;;2.13;;
22034;SDS011;11181;51.002;4.356;2023-04-03T14:24:16;2.83;;;1.37;;
22034;SDS011;11181;51.002;4.356;2023-04-03T14:26:44;2.27;;;1.30;;
22034;SDS011;11181;51.002;4.356;2023-04-03T14:29:12;2.07;;;1.40;;
22034;SDS011;11181;51.002;4.356;2023-04-03T14:31:40;2.20;;;1.27;;
22034;SDS011;11181;51.002;4.356;2023-04-03T14:34:07;2.07;;;1.33;;
22034;SDS011;11181;51.002;4.356;2023-04-03T14:36:35;4.57;;;1.60;;
22034;SDS011;11181;51.002;4.356;2023-04-03T14:39:03;3.23;;;1.10;;
22034;SDS011;11181;51.002;4.356;2023-04-03T14:41:32;4.13;;;1.73;;
22034;SDS011;11181;51.002;4.356;2023-04-03T14:43:59;1.20;;;1.10;;
22034;SDS011;11181;51.002;4.356;2023-04-03T14:46:26;2.33;;;1.30;;
22034;SDS011;11181;51.002;4.356;2023-04-03T14:48:56;3.13;;;1.37;;
22034;SDS011;11181;51.002;4.356;2023-04-03T14:51:23;1.83;;;1.40;;
22034;SDS011;11181;51.002;4.356;2023-04-03T14:53:51;1.33;;;0.80;;
22034;SDS011;11181;51.002;4.356;2023-04-03T14:56:21;2.47;;;1.27;;
22034;SDS011;11181;51.002;4.356;2023-04-03T14:58:54;3.27;;;1.20;;
22034;SDS011;11181;51.002;4.356;2023-04-03T15:01:23;5.80;;;1.37;;
22034;SDS011;11181;51.002;4.356;2023-04-03T15:03:50;1.70;;;1.20;;
22034;SDS011;11181;51.002;4.356;2023-04-03T15:06:17;3.13;;;1.10;;
22034;SDS011;11181;51.002;4.356;2023-04-03T15:08:45;2.00;;;1.10;;
22034;SDS011;11181;51.002;4.356;2023-04-03T15:11:13;1.53;;;0.90;;
22034;SDS011;11181;51.002;4.356;2023-04-03T15:13:41;2.50;;;1.87;;
22034;SDS011;11181;51.002;4.356;2023-04-03T15:16:12;1.13;;;0.93;;
22034;SDS011;11181;51.002;4.356;2023-04-03T15:18:42;3.87;;;1.03;;
22034;SDS011;11181;51.002;4.356;2023-04-03T15:21:10;1.03;;;0.90;;
22034;SDS011;11181;51.002;4.356;2023-04-03T15:23:37;2.20;;;1.00;;